Crockett, KY (41413)

4:32 AM EDT on August 27, 2016 (GMT -0400)
Keaton | | Change Station

Elev 850 ft 37.96 °N, 82.98 °W | Updated 12 minutes ago

Clear
Clear
68.0 °F
Feels Like 68.0 °F
N
0.0
Wind Variable Wind from SW

Today
High -- | Low -- °F
--% Chance of Precip.
Yesterday
High -- | Low -- °F
Precip. -- in
Pressure 30.13 in
Visibility 5.0 miles
Clouds Clear
Dew Point 65 °F
Humidity 91%
Rainfall 0.00 in
Snow Depth Not available.
6:58 AM 8:08 PM
Waning Crescent, 26% visible
METAR KSJS 270815Z AUTO 00000KT 5SM BR CLR 23/23 A3013 RMK AO2 T02260226
Pressure 30.13 in
Visibility 5.0 miles
Clouds Clear
Dew Point 65 °F
Humidity 91%
Rainfall 0.00 in
Snow Depth Not available.
6:58 AM 8:08 PM
Waning Crescent, 26% visible
METAR KSJS 270815Z AUTO 00000KT 5SM BR CLR 23/23 A3013 RMK AO2 T02260226

10-Day Weather Forecast

Almanac

Astronomy

Aug. 27, 2016 Rise Set
Actual Time
Civil Twilight
Nautical Twilight
Astronomical Twilight
Moon
Length of Visible Light
Length of Day
Tomorrow will be .
, % of the Moon is Illuminated

Today's Extremes

State Highs State Lows

Community

WunderPhotos

Upload Photos

1,935,303 photos uploaded!

WunderBlog® & News

Nearby

Air Quality

  Air Quality AQ Index Pollutant
Not available.

Snow Depth

Station Depth Elevation

Earthquake Activity

City Distance Mag. Time & Date
Minimum magnitude displayed is 2.5.

Coastal Water Temperatures

Place Temperature

Stations

Nearby Weather Stations

Station Location Temp. Windchill Dew Point Humidity Wind Precip. Elev Updated Type
                   

Watches & Warnings

There are currently no watches in effect.